CheckWX is a tool to help pilots better visualize weather data.  It is not intended as a substitute for an official pre-flight weather briefing.

10:32:21 UTC

CYOW METAR
Ottawa / Macdonald-Cartier International Airport
Ottawa, Canada
Current

32 mins ago

CYOW 261000Z 34009KT 15SM SKC M07/M17 A3029 RMK SLP267
Observed
Mar-26 @ 10:00 UTC
Wind
  • 340° at 9 KTS
Visibility
15 SM
Flight Rules
VFR
Cloud Levels
  • Clear skies
Temperature
-7°C / 19°F
Dewpoint
-17°C / 1°F
Humidity
45%
Altimeter
30.29" Hg
Pressure
1026.7 hPa
Previous

2 hours ago

CYOW 260900Z 34010KT 15SM SKC M06/M17 A3027 RMK SLP259
Observed
Mar-26 @ 09:00 UTC
Wind
  • 340° at 10 KTS
Visibility
15 SM
Flight Rules
VFR
Cloud Levels
  • Clear skies
Temperature
-6°C / 21°F
Dewpoint
-17°C / 1°F
Humidity
42%
Altimeter
30.27" Hg
Pressure
1025.9 hPa
Previous

3 hours ago

CYOW 260800Z 33011KT 15SM SKC M05/M17 A3026 RMK SLP254
Observed
Mar-26 @ 08:00 UTC
Wind
  • 330° at 11 KTS
Visibility
15 SM
Flight Rules
VFR
Cloud Levels
  • Clear skies
Temperature
-5°C / 23°F
Dewpoint
-17°C / 1°F
Humidity
39%
Altimeter
30.26" Hg
Pressure
1025.4 hPa